createdAt,value
2019-04-29T00:00:44.351Z,101122.50
2019-04-29T00:01:50.535Z,101123.79
2019-04-29T00:02:54.990Z,101122.02
2019-04-29T00:03:59.449Z,101125.53
2019-04-29T00:05:05.922Z,101117.27
2019-04-29T00:06:10.810Z,101116.36
2019-04-29T00:07:15.569Z,101119.84
2019-04-29T00:08:20.022Z,101122.48
2019-04-29T00:09:24.863Z,101119.40
2019-04-29T00:10:30.098Z,101119.88
2019-04-29T00:11:34.573Z,101118.95
2019-04-29T00:12:39.556Z,101124.67
2019-04-29T00:13:44.297Z,101118.09
2019-04-29T00:14:53.483Z,101112.45
2019-04-29T00:16:12.004Z,101115.50
2019-04-29T00:17:24.223Z,101117.27
2019-04-29T00:18:33.296Z,101119.40
2019-04-29T00:19:58.231Z,101118.13
2019-04-29T00:21:02.685Z,101121.62
2019-04-29T00:22:07.230Z,101119.85
2019-04-29T00:23:11.691Z,101110.21
2019-04-29T00:24:16.154Z,101113.33
2019-04-29T00:25:20.604Z,101111.16
2019-04-29T00:26:25.593Z,101116.84
2019-04-29T00:27:30.417Z,101112.92
2019-04-29T00:28:34.942Z,101110.70
2019-04-29T00:29:39.399Z,101116.38
2019-04-29T00:30:44.094Z,101112.02
2019-04-29T00:31:48.641Z,101104.95
2019-04-29T00:32:53.093Z,101108.95
2019-04-29T00:33:57.555Z,101111.11
2019-04-29T00:35:02.015Z,101112.83
2019-04-29T00:36:06.611Z,101112.88
2019-04-29T00:37:16.046Z,101108.51
2019-04-29T00:38:22.147Z,101110.66
2019-04-29T00:39:44.834Z,101113.76
2019-04-29T00:41:02.826Z,101108.03
2019-04-29T00:42:25.236Z,101111.14
2019-04-29T00:43:46.617Z,101113.29
2019-04-29T00:44:51.079Z,101115.50
2019-04-29T00:45:55.612Z,101091.89
2019-04-29T00:47:00.453Z,101091.89
2019-04-29T00:48:04.911Z,101110.20
2019-04-29T00:49:09.376Z,101108.48
2019-04-29T00:50:14.104Z,101108.48
2019-04-29T00:51:18.906Z,101112.42
2019-04-29T00:52:23.732Z,101111.93
2019-04-29T00:53:28.358Z,101104.58
2019-04-29T00:54:34.754Z,101109.30
2019-04-29T00:55:39.518Z,101114.16
2019-04-29T00:56:43.988Z,101114.16
2019-04-29T00:57:49.436Z,101108.41
2019-04-29T00:58:53.896Z,101108.44
2019-04-29T00:59:58.696Z,101111.92
2019-04-29T01:01:04.236Z,101113.70
2019-04-29T01:02:09.272Z,101109.80
2019-04-29T01:03:13.752Z,101109.30
2019-04-29T01:04:18.217Z,101109.30
2019-04-29T01:05:22.679Z,101113.72
2019-04-29T01:06:27.140Z,101088.80
2019-04-29T01:07:31.599Z,101111.11
2019-04-29T01:08:36.616Z,101111.97
2019-04-29T01:09:41.079Z,101110.21
2019-04-29T01:10:45.912Z,101110.21
2019-04-29T01:11:50.686Z,101087.08
2019-04-29T01:12:55.509Z,101109.34
2019-04-29T01:13:59.966Z,101108.45
2019-04-29T01:15:06.532Z,101106.68
2019-04-29T01:16:10.990Z,101106.68
2019-04-29T01:17:15.815Z,101110.62
2019-04-29T01:18:20.298Z,101111.07
2019-04-29T01:19:24.757Z,101108.47
2019-04-29T01:20:29.215Z,101106.78
2019-04-29T01:21:33.680Z,101107.63
2019-04-29T01:22:38.219Z,101109.39
2019-04-29T01:23:43.138Z,101097.15
2019-04-29T01:24:47.915Z,101102.81
2019-04-29T01:25:54.307Z,101102.81
2019-04-29T01:27:00.723Z,101087.53
2019-04-29T01:28:10.060Z,101103.69
2019-04-29T01:29:16.314Z,101107.63
2019-04-29T01:30:41.714Z,101089.81
2019-04-29T01:31:46.188Z,101102.88
2019-04-29T01:32:50.641Z,101094.96
2019-04-29T01:33:56.767Z,101094.55
2019-04-29T01:35:01.228Z,101092.80
2019-04-29T01:36:16.657Z,101096.31
2019-04-29T01:37:22.823Z,101091.96
2019-04-29T01:38:27.288Z,101091.96
2019-04-29T01:39:53.306Z,101086.27
2019-04-29T01:41:02.090Z,101068.84
2019-04-29T01:42:08.191Z,101086.30
2019-04-29T01:43:12.652Z,101088.07
2019-04-29T01:44:18.305Z,101088.05
2019-04-29T01:45:23.069Z,101088.05
2019-04-29T01:46:28.170Z,101093.71
2019-04-29T01:47:33.698Z,101093.71
2019-04-29T01:48:38.166Z,101091.97
2019-04-29T01:49:42.717Z,101088.09
2019-04-29T01:50:47.195Z,101088.09
2019-04-29T01:51:51.651Z,101083.23
2019-04-29T01:52:56.405Z,101083.23
2019-04-29T01:54:00.900Z,101088.05
2019-04-29T01:55:05.698Z,101073.27
2019-04-29T01:56:10.548Z,101064.09
2019-04-29T01:57:15.372Z,101082.80
2019-04-29T01:58:20.114Z,101079.33
2019-04-29T01:59:24.908Z,101079.33
2019-04-29T02:00:29.368Z,101074.48
2019-04-29T02:01:34.140Z,101074.48
2019-04-29T02:02:38.594Z,101071.88
2019-04-29T02:03:43.474Z,101074.11
2019-04-29T02:04:49.307Z,101073.64
2019-04-29T02:05:53.766Z,101071.03
2019-04-29T02:06:58.227Z,101071.05
2019-04-29T02:08:02.687Z,101074.09
2019-04-29T02:09:10.241Z,101071.91
2019-04-29T02:10:16.892Z,101079.34
2019-04-29T02:11:21.642Z,101050.98
2019-04-29T02:12:27.135Z,101072.80
2019-04-29T02:13:31.968Z,101066.69
2019-04-29T02:14:36.450Z,101062.77
2019-04-29T02:15:40.904Z,101066.30
2019-04-29T02:16:45.362Z,101063.67
2019-04-29T02:17:49.828Z,101067.16
2019-04-29T02:18:54.291Z,101048.83
2019-04-29T02:19:58.772Z,101070.64
2019-04-29T02:21:03.304Z,101061.46
2019-04-29T02:22:09.696Z,101067.61
2019-04-29T02:23:15.798Z,101064.98
2019-04-29T02:24:20.928Z,101061.50
2019-04-29T02:25:33.182Z,101058.42
2019-04-29T02:26:38.104Z,101055.80
2019-04-29T02:27:42.564Z,101056.70
2019-04-29T02:28:47.025Z,101054.47
2019-04-29T02:29:51.898Z,101056.23
2019-04-29T02:30:56.515Z,101049.66
2019-04-29T02:32:01.048Z,101050.97
2019-04-29T02:33:05.664Z,101049.66
2019-04-29T02:34:10.565Z,101048.81
2019-04-29T02:35:15.468Z,101043.17
2019-04-29T02:36:19.929Z,101047.95
2019-04-29T02:37:26.318Z,101046.21
2019-04-29T02:38:44.736Z,101043.17
2019-04-29T02:39:51.109Z,101043.14
2019-04-29T02:41:02.693Z,101044.02
2019-04-29T02:42:14.792Z,101043.56
2019-04-29T02:43:20.978Z,101037.85
2019-04-29T02:44:25.833Z,101037.45
2019-04-29T02:45:31.953Z,101040.06
2019-04-29T02:46:36.411Z,101038.34
2019-04-29T02:47:41.169Z,101036.58
2019-04-29T02:48:45.629Z,101036.58
2019-04-29T02:49:50.093Z,101033.50
2019-04-29T02:50:54.838Z,101040.50
2019-04-29T02:51:59.308Z,101032.19
2019-04-29T02:53:03.779Z,101035.70
2019-04-29T02:54:08.230Z,101035.75
2019-04-29T02:55:14.672Z,101010.42
2019-04-29T02:56:19.149Z,101010.42
2019-04-29T02:57:25.248Z,101014.77
2019-04-29T02:58:37.947Z,101014.77
2019-04-29T02:59:53.260Z,101030.00
2019-04-29T03:01:15.514Z,101015.14
2019-04-29T03:02:21.620Z,101019.07
2019-04-29T03:03:27.714Z,101021.30
2019-04-29T03:04:36.740Z,101017.31
2019-04-29T03:05:43.180Z,101018.62
2019-04-29T03:06:47.739Z,101013.42
2019-04-29T03:07:52.337Z,101013.42
2019-04-29T03:08:56.869Z,101009.45
2019-04-29T03:10:01.342Z,101010.33
2019-04-29T03:11:06.258Z,101012.52
2019-04-29T03:12:10.716Z,101010.80
2019-04-29T03:13:15.244Z,101005.10
2019-04-29T03:14:19.773Z,101005.10
2019-04-29T03:15:31.335Z,101002.47
2019-04-29T03:16:35.824Z,100983.26
2019-04-29T03:17:41.008Z,100983.26
2019-04-29T03:18:47.109Z,100991.10
2019-04-29T03:20:08.364Z,100991.08
2019-04-29T03:21:14.472Z,100991.48
2019-04-29T03:22:18.931Z,100987.60
2019-04-29T03:23:25.676Z,100990.65
2019-04-29T03:24:30.145Z,100987.19
2019-04-29T03:25:34.608Z,100984.59
2019-04-29T03:26:39.441Z,100985.47
2019-04-29T03:27:43.903Z,100980.22
2019-04-29T03:28:48.368Z,100981.09
2019-04-29T03:29:52.836Z,100974.48
2019-04-29T03:30:57.303Z,100981.05
2019-04-29T03:32:01.791Z,100974.98
2019-04-29T03:33:06.276Z,100960.17
2019-04-29T03:34:10.729Z,100985.92
2019-04-29T03:35:15.538Z,100986.78
2019-04-29T03:36:21.375Z,100985.94
2019-04-29T03:37:26.207Z,100983.73
2019-04-29T03:38:30.667Z,100985.47
2019-04-29T03:39:35.429Z,100985.47
2019-04-29T03:40:39.966Z,100978.87
2019-04-29T03:41:44.421Z,100983.70
2019-04-29T03:42:48.921Z,100977.55
2019-04-29T03:43:53.371Z,100971.42
2019-04-29T03:44:58.195Z,100964.89
2019-04-29T03:46:02.654Z,100964.89
2019-04-29T03:47:07.120Z,100963.11
2019-04-29T03:48:11.605Z,100958.73
2019-04-29T03:49:16.054Z,100947.84
2019-04-29T03:50:20.971Z,100951.72
2019-04-29T03:51:25.427Z,100951.72
2019-04-29T03:52:29.899Z,100956.09
2019-04-29T03:53:34.712Z,100955.22
2019-04-29T03:54:39.525Z,100955.70
2019-04-29T03:55:44.275Z,100962.70
2019-04-29T03:56:48.747Z,100959.20
2019-04-29T03:57:53.218Z,100964.90
2019-04-29T03:58:57.677Z,100970.09
2019-04-29T04:00:02.214Z,100955.67
2019-04-29T04:01:18.949Z,100956.97
2019-04-29T04:02:25.483Z,100960.05
2019-04-29T04:03:46.640Z,100956.98
2019-04-29T04:05:10.928Z,100953.52
2019-04-29T04:06:25.878Z,100950.87
2019-04-29T04:07:43.997Z,100955.68
2019-04-29T04:09:04.866Z,100951.72
2019-04-29T04:09:56.548Z,100953.44
2019-04-29T04:11:01.008Z,100953.44
2019-04-29T04:12:05.471Z,100959.15
2019-04-29T04:13:10.242Z,100956.50
2019-04-29T04:14:14.709Z,100943.86
2019-04-29T04:15:19.171Z,100955.58
2019-04-29T04:16:31.193Z,100953.84
2019-04-29T04:17:42.940Z,100947.28
2019-04-29T04:18:47.398Z,100945.08
2019-04-29T04:19:51.859Z,100944.17
2019-04-29T04:20:56.705Z,100922.86
2019-04-29T04:22:01.174Z,100945.52
2019-04-29T04:23:05.659Z,100946.84
2019-04-29T04:24:10.119Z,100947.28
2019-04-29T04:25:14.645Z,100955.20
2019-04-29T04:26:19.106Z,100943.35
2019-04-29T04:27:23.567Z,100949.55
2019-04-29T04:28:28.328Z,100956.52
2019-04-29T04:29:32.786Z,100945.52
2019-04-29T04:30:37.261Z,100952.06
2019-04-29T04:31:41.721Z,100950.30
2019-04-29T04:32:46.266Z,100945.00
2019-04-29T04:33:50.746Z,100943.25
2019-04-29T04:34:55.202Z,100940.62
2019-04-29T04:35:59.675Z,100951.08
2019-04-29T04:37:04.508Z,100945.38
2019-04-29T04:38:08.985Z,100926.66
2019-04-29T04:39:13.441Z,100926.66
2019-04-29T04:40:28.948Z,100943.67
2019-04-29T04:41:33.406Z,100936.61
2019-04-29T04:42:37.865Z,100944.94
2019-04-29T04:43:42.647Z,100940.59
2019-04-29T04:44:50.280Z,100941.45
2019-04-29T04:45:55.144Z,100941.86
2019-04-29T04:46:59.899Z,100941.48
2019-04-29T04:48:04.747Z,100937.05
2019-04-29T04:49:09.210Z,100939.69
2019-04-29T04:50:13.911Z,100939.69
2019-04-29T04:51:18.366Z,100936.61
2019-04-29T04:52:22.830Z,100936.59
2019-04-29T04:53:27.325Z,100936.10
2019-04-29T04:54:32.448Z,100941.33
2019-04-29T04:55:38.561Z,100938.25
2019-04-29T04:56:43.338Z,100937.83
2019-04-29T04:57:47.802Z,100917.31
2019-04-29T04:58:52.671Z,100920.38
2019-04-29T04:59:57.127Z,100920.38
2019-04-29T05:01:01.590Z,100929.88
2019-04-29T05:02:06.120Z,100932.95
2019-04-29T05:03:10.589Z,100932.19
2019-04-29T05:04:15.062Z,100936.44
2019-04-29T05:05:19.525Z,100927.20
2019-04-29T05:06:23.988Z,100929.39
2019-04-29T05:07:29.418Z,100931.59
2019-04-29T05:08:34.199Z,100918.09
2019-04-29T05:09:39.015Z,100918.09
2019-04-29T05:10:43.838Z,100938.14
2019-04-29T05:11:48.580Z,100934.25
2019-04-29T05:12:53.043Z,100933.36
2019-04-29T05:13:57.532Z,100933.36
2019-04-29T05:15:02.300Z,100933.36
2019-04-29T05:16:06.760Z,100936.80
2019-04-29T05:17:11.527Z,100927.20
2019-04-29T05:18:15.988Z,100922.50
2019-04-29T05:19:20.469Z,100922.50
2019-04-29T05:20:24.930Z,100936.42
2019-04-29T05:21:30.748Z,100932.91
2019-04-29T05:22:35.560Z,100932.43
2019-04-29T05:23:41.715Z,100942.80
2019-04-29T05:24:46.596Z,100937.07
2019-04-29T05:25:51.063Z,100941.80
2019-04-29T05:26:55.533Z,100946.17
2019-04-29T05:28:00.169Z,100933.08
2019-04-29T05:29:05.059Z,100933.08
2019-04-29T05:30:11.104Z,100929.61
2019-04-29T05:31:15.923Z,100951.25
2019-04-29T05:32:20.390Z,100927.27
2019-04-29T05:33:24.854Z,100928.56
2019-04-29T05:34:30.982Z,100928.56
2019-04-29T05:35:46.160Z,100942.52
2019-04-29T05:36:58.045Z,100942.52
2019-04-29T05:38:10.217Z,100946.92
2019-04-29T05:39:19.360Z,100952.00
2019-04-29T05:40:44.092Z,100952.00
2019-04-29T05:41:48.864Z,100929.84
2019-04-29T05:42:54.071Z,100951.25
2019-04-29T05:44:00.566Z,100957.26
2019-04-29T05:45:21.592Z,100957.26
2019-04-29T05:46:30.664Z,100961.76
2019-04-29T05:47:37.067Z,100939.98
2019-04-29T05:48:41.855Z,100939.98
2019-04-29T05:49:47.980Z,100960.84
2019-04-29T05:50:56.947Z,100955.61
2019-04-29T05:52:05.116Z,100953.39
2019-04-29T05:53:17.927Z,100957.31
2019-04-29T05:54:26.946Z,100952.85
2019-04-29T05:55:30.435Z,100953.09
2019-04-29T05:56:34.966Z,100951.78
2019-04-29T05:57:42.512Z,100936.41
2019-04-29T05:58:46.412Z,100936.41
2019-04-29T05:59:50.898Z,100955.95
2019-04-29T06:00:57.291Z,100932.20
2019-04-29T06:02:03.119Z,100949.98
2019-04-29T06:03:07.585Z,100947.30
2019-04-29T06:04:16.340Z,100947.38
2019-04-29T06:05:18.223Z,100943.17
2019-04-29T06:06:22.681Z,100941.05
2019-04-29T06:07:27.139Z,100938.43
2019-04-29T06:08:34.562Z,100948.98
2019-04-29T06:09:38.128Z,100953.47
2019-04-29T06:10:42.597Z,100954.28
2019-04-29T06:11:47.051Z,100954.28
2019-04-29T06:12:51.807Z,100947.78
2019-04-29T06:13:56.546Z,100943.41
2019-04-29T06:15:01.362Z,100938.11
2019-04-29T06:16:06.148Z,100933.36
2019-04-29T06:17:10.900Z,100931.97
2019-04-29T06:18:17.688Z,100924.89
2019-04-29T06:19:22.075Z,100920.94
2019-04-29T06:20:26.555Z,100913.94
2019-04-29T06:21:31.318Z,100920.50
2019-04-29T06:22:37.878Z,100916.51
2019-04-29T06:23:42.236Z,100916.51
2019-04-29T06:24:46.725Z,100898.63
2019-04-29T06:25:51.188Z,100898.63
2019-04-29T06:26:55.651Z,100916.51
2019-04-29T06:28:00.119Z,100916.51
2019-04-29T06:29:05.954Z,100919.59
2019-04-29T06:30:11.149Z,100908.72
2019-04-29T06:31:15.611Z,100908.72
2019-04-29T06:32:24.346Z,100910.96
2019-04-29T06:33:29.225Z,100911.35
2019-04-29T06:34:35.590Z,100908.72
2019-04-29T06:35:38.869Z,100908.72
2019-04-29T06:36:43.611Z,100904.86
2019-04-29T06:37:48.081Z,100901.33
2019-04-29T06:38:52.532Z,100911.37
2019-04-29T06:39:56.999Z,100912.18
2019-04-29T06:41:01.482Z,100920.02
2019-04-29T06:42:06.305Z,100905.17
2019-04-29T06:43:10.764Z,100903.55
2019-04-29T06:44:16.754Z,100903.55
2019-04-29T06:45:21.392Z,100910.59
2019-04-29T06:46:26.137Z,100910.59
2019-04-29T06:47:30.889Z,100903.89
2019-04-29T06:48:35.349Z,100918.63
2019-04-29T06:49:40.097Z,100918.63
2019-04-29T06:50:45.153Z,100918.28
2019-04-29T06:51:49.610Z,100920.91
2019-04-29T06:52:54.370Z,100925.24
2019-04-29T06:53:58.842Z,100917.41
2019-04-29T06:55:03.678Z,100917.41
2019-04-29T06:56:09.280Z,100920.45
2019-04-29T06:57:13.817Z,100919.48
2019-04-29T06:58:18.290Z,100922.02
2019-04-29T06:59:23.037Z,100926.40
2019-04-29T07:00:28.319Z,100924.14
2019-04-29T07:01:33.059Z,100935.58
2019-04-29T07:02:38.997Z,100907.09
2019-04-29T07:03:43.460Z,100923.19
2019-04-29T07:04:48.228Z,100923.19
2019-04-29T07:05:52.865Z,100921.11
2019-04-29T07:06:57.932Z,100923.97
2019-04-29T07:08:02.438Z,100927.45
2019-04-29T07:09:07.771Z,100927.45
2019-04-29T07:10:16.484Z,100934.06
2019-04-29T07:11:18.572Z,100934.06
2019-04-29T07:12:23.346Z,100939.38
2019-04-29T07:13:27.896Z,100911.03
2019-04-29T07:14:33.369Z,100938.91
2019-04-29T07:15:39.508Z,100918.98
2019-04-29T07:16:44.284Z,100918.98
2019-04-29T07:17:48.752Z,100938.63
2019-04-29T07:18:53.808Z,100926.80
2019-04-29T07:20:02.076Z,100938.63
2019-04-29T07:21:07.551Z,100935.53
2019-04-29T07:22:11.000Z,100936.77
2019-04-29T07:23:15.772Z,100943.76
2019-04-29T07:24:20.553Z,100928.52
2019-04-29T07:25:28.858Z,100929.05
2019-04-29T07:26:31.835Z,100929.05
2019-04-29T07:27:42.951Z,100923.84
2019-04-29T07:28:42.469Z,100928.64
2019-04-29T07:29:46.933Z,100919.88
2019-04-29T07:31:01.218Z,100924.64
2019-04-29T07:31:58.165Z,100919.85
2019-04-29T07:33:05.452Z,100929.92
2019-04-29T07:34:09.139Z,100908.97
2019-04-29T07:35:13.831Z,100924.78
2019-04-29T07:36:18.716Z,100923.48
2019-04-29T07:37:24.759Z,100919.10
2019-04-29T07:38:40.696Z,100916.12
2019-04-29T07:39:35.473Z,100923.63
2019-04-29T07:40:43.280Z,100914.92
2019-04-29T07:41:49.619Z,100917.98
2019-04-29T07:42:52.341Z,100914.98
2019-04-29T07:43:56.802Z,100926.86
2019-04-29T07:45:12.247Z,100915.53
2019-04-29T07:46:48.984Z,100917.77
2019-04-29T07:47:40.664Z,100902.94
2019-04-29T07:48:45.443Z,100913.91
2019-04-29T07:49:51.527Z,100909.16
2019-04-29T07:50:59.546Z,100914.41
2019-04-29T07:52:02.538Z,100918.81
2019-04-29T07:53:06.996Z,100921.43
2019-04-29T07:54:16.021Z,100920.56
2019-04-29T07:55:17.616Z,100919.67
2019-04-29T07:56:22.085Z,100921.39
2019-04-29T07:57:26.563Z,100921.39
2019-04-29T07:58:31.313Z,100923.19
2019-04-29T07:59:38.527Z,100923.64
2019-04-29T08:00:44.521Z,100929.76
2019-04-29T08:01:48.390Z,100924.90
2019-04-29T08:02:52.871Z,100926.62
2019-04-29T08:03:58.971Z,100931.44
2019-04-29T08:05:21.163Z,100931.45
2019-04-29T08:06:26.077Z,100937.98
2019-04-29T08:07:31.294Z,100932.73
2019-04-29T08:08:36.292Z,100935.33
2019-04-29T08:09:44.131Z,100937.98
2019-04-29T08:10:55.878Z,100936.23
2019-04-29T08:11:54.415Z,100940.61
2019-04-29T08:12:59.638Z,100935.86
2019-04-29T08:14:04.917Z,100940.70
2019-04-29T08:15:09.825Z,100938.95
2019-04-29T08:16:17.081Z,100929.30
2019-04-29T08:17:22.176Z,100938.47
2019-04-29T08:18:26.651Z,100939.80
2019-04-29T08:19:31.661Z,100943.28
2019-04-29T08:20:39.940Z,100942.78
2019-04-29T08:21:45.614Z,100937.14
2019-04-29T08:22:49.967Z,100939.34
2019-04-29T08:23:54.430Z,100935.42
2019-04-29T08:24:58.894Z,100928.02
2019-04-29T08:26:04.512Z,100930.19
2019-04-29T08:27:09.158Z,100932.02
2019-04-29T08:28:13.932Z,100929.33
2019-04-29T08:29:19.454Z,100932.84
2019-04-29T08:30:24.228Z,100929.30
2019-04-29T08:31:28.995Z,100928.45
2019-04-29T08:32:36.459Z,100924.58
2019-04-29T08:33:42.528Z,100916.25
2019-04-29T08:34:47.790Z,100916.67
2019-04-29T08:35:52.534Z,100925.37
2019-04-29T08:36:57.286Z,100909.21
2019-04-29T08:38:01.772Z,100915.27
2019-04-29T08:39:09.285Z,100914.41
2019-04-29T08:40:16.859Z,100912.17
2019-04-29T08:41:28.304Z,100909.09
2019-04-29T08:42:31.831Z,100910.81
2019-04-29T08:43:38.224Z,100911.70
2019-04-29T08:44:50.533Z,100909.52
2019-04-29T08:45:56.628Z,100917.38
2019-04-29T08:47:11.425Z,100924.39
2019-04-29T08:48:15.907Z,100927.88
2019-04-29T08:49:20.363Z,100935.78
2019-04-29T08:50:25.147Z,100934.44
2019-04-29T08:51:29.900Z,100933.14
2019-04-29T08:52:34.656Z,100929.59
2019-04-29T08:53:39.427Z,100927.39
2019-04-29T08:54:44.174Z,100926.94
2019-04-29T08:55:48.927Z,100925.27
2019-04-29T08:57:02.934Z,100926.89
2019-04-29T08:57:59.861Z,100929.11
2019-04-29T08:59:04.389Z,100930.78
2019-04-29T09:00:09.899Z,100931.63
2019-04-29T09:01:14.429Z,100933.42
2019-04-29T09:02:33.097Z,100931.05
2019-04-29T09:03:39.219Z,100929.30
2019-04-29T09:04:33.266Z,100932.43
2019-04-29T09:05:37.671Z,100932.34
2019-04-29T09:06:42.129Z,100934.55
2019-04-29T09:07:46.593Z,100928.83
2019-04-29T09:08:56.201Z,100931.20
2019-04-29T09:10:01.829Z,100927.73
2019-04-29T09:11:08.269Z,100925.52
2019-04-29T09:12:10.354Z,100909.81
2019-04-29T09:13:14.831Z,100922.03
2019-04-29T09:14:19.293Z,100920.75
2019-04-29T09:15:23.827Z,100920.25
2019-04-29T09:16:28.436Z,100922.50
2019-04-29T09:17:32.903Z,100916.39
2019-04-29T09:18:37.380Z,100912.05
2019-04-29T09:19:42.132Z,100914.68
2019-04-29T09:20:47.960Z,100904.64
2019-04-29T09:21:56.739Z,100911.16
2019-04-29T09:23:03.149Z,100897.64
2019-04-29T09:24:07.631Z,100902.79
2019-04-29T09:25:28.629Z,100898.76
2019-04-29T09:26:34.801Z,100895.69
2019-04-29T09:27:45.063Z,100899.27
2019-04-29T09:28:49.815Z,100901.80
2019-04-29T09:29:54.304Z,100899.17
2019-04-29T09:31:00.407Z,100900.95
2019-04-29T09:32:06.043Z,100895.69
2019-04-29T09:33:13.205Z,100897.45
2019-04-29T09:34:19.829Z,100894.37
2019-04-29T09:35:23.477Z,100890.36
2019-04-29T09:36:28.948Z,100892.88
2019-04-29T09:37:34.039Z,100896.28
2019-04-29T09:38:38.526Z,100896.33
2019-04-29T09:39:44.634Z,100881.11
2019-04-29T09:40:54.571Z,100891.61
2019-04-29T09:41:58.819Z,100897.28
2019-04-29T09:43:21.474Z,100898.09
2019-04-29T09:44:45.022Z,100901.87
2019-04-29T09:45:53.889Z,100902.05
2019-04-29T09:46:57.344Z,100907.56
2019-04-29T09:48:02.096Z,100907.72
2019-04-29T09:49:06.566Z,100906.35
2019-04-29T09:50:11.289Z,100904.04
2019-04-29T09:51:17.890Z,100905.41
2019-04-29T09:52:21.991Z,100909.44
2019-04-29T09:53:26.745Z,100919.00
2019-04-29T09:54:31.201Z,100908.08
2019-04-29T09:55:39.836Z,100911.12
2019-04-29T09:56:41.849Z,100914.67
2019-04-29T09:57:46.311Z,100910.27
2019-04-29T09:58:52.413Z,100908.94
2019-04-29T10:00:05.247Z,100913.27
2019-04-29T10:01:30.383Z,100923.66
2019-04-29T10:02:42.239Z,100902.99
2019-04-29T10:03:57.132Z,100917.63
2019-04-29T10:05:12.027Z,100914.45
2019-04-29T10:06:33.963Z,100915.27
2019-04-29T10:07:38.509Z,100906.91
2019-04-29T10:08:43.045Z,100915.70
2019-04-29T10:09:56.925Z,100910.85
2019-04-29T10:10:53.761Z,100909.92
2019-04-29T10:11:58.223Z,100909.81
2019-04-29T10:13:02.695Z,100912.85
2019-04-29T10:14:07.595Z,100909.73
2019-04-29T10:15:14.081Z,100911.07
2019-04-29T10:16:38.565Z,100907.95
2019-04-29T10:17:53.565Z,100903.62
2019-04-29T10:19:13.938Z,100915.25
2019-04-29T10:20:22.973Z,100915.02
2019-04-29T10:21:27.719Z,100907.05
2019-04-29T10:22:32.362Z,100909.50
2019-04-29T10:23:36.826Z,100908.06
2019-04-29T10:24:41.294Z,100903.65
2019-04-29T10:25:46.135Z,100903.12
2019-04-29T10:26:50.598Z,100900.45
2019-04-29T10:27:55.067Z,100878.44
2019-04-29T10:29:01.175Z,100866.52
2019-04-29T10:30:09.803Z,100895.47
2019-04-29T10:31:14.374Z,100901.67
2019-04-29T10:32:19.390Z,100901.14
2019-04-29T10:33:24.979Z,100904.78
2019-04-29T10:34:31.707Z,100889.09
2019-04-29T10:35:36.052Z,100897.56
2019-04-29T10:36:40.896Z,100898.44
2019-04-29T10:37:45.728Z,100893.64
2019-04-29T10:38:51.164Z,100879.06
2019-04-29T10:40:10.592Z,100892.30
2019-04-29T10:41:10.589Z,100895.94
2019-04-29T10:42:16.966Z,100890.27
2019-04-29T10:43:29.196Z,100892.97
2019-04-29T10:44:41.304Z,100888.98
2019-04-29T10:45:53.125Z,100901.92
2019-04-29T10:47:11.393Z,100901.92
2019-04-29T10:48:17.566Z,100896.16
2019-04-29T10:49:26.999Z,100889.71
2019-04-29T10:50:33.205Z,100892.88
2019-04-29T10:51:37.916Z,100906.02
2019-04-29T10:52:43.577Z,100900.85
2019-04-29T10:54:00.046Z,100899.13
2019-04-29T11:00:27.609Z,100910.55
2019-04-29T11:02:01.684Z,100912.63
2019-04-29T11:03:04.861Z,100910.84
2019-04-29T11:04:09.511Z,100912.22
2019-04-29T11:05:32.739Z,100907.75
2019-04-29T11:06:37.485Z,100909.44
2019-04-29T11:07:43.864Z,100912.77
2019-04-29T11:08:52.722Z,100909.78
2019-04-29T11:10:24.154Z,100906.69
2019-04-29T11:11:23.259Z,100910.13
2019-04-29T11:12:24.827Z,100905.28
2019-04-29T11:13:29.807Z,100896.16
2019-04-29T11:14:37.583Z,100905.78
2019-04-29T11:15:40.494Z,100909.22
2019-04-29T11:16:47.116Z,100887.73
2019-04-29T11:17:59.308Z,100887.73
2019-04-29T11:19:18.886Z,100884.50
2019-04-29T11:20:24.990Z,100905.80
2019-04-29T11:21:31.272Z,100903.87
2019-04-29T11:22:40.173Z,100906.02
2019-04-29T11:23:50.571Z,100908.01
2019-04-29T11:25:05.593Z,100904.45
2019-04-29T11:26:28.034Z,100905.30
2019-04-29T11:27:36.968Z,100909.87
2019-04-29T11:28:41.527Z,100904.77
2019-04-29T11:29:46.299Z,100904.77
2019-04-29T11:30:50.824Z,100899.41
2019-04-29T11:31:55.971Z,100906.00
2019-04-29T11:33:18.173Z,100900.25
2019-04-29T11:34:24.341Z,100908.64
2019-04-29T11:35:48.763Z,100895.83
2019-04-29T11:37:00.758Z,100903.52
2019-04-29T11:40:43.484Z,100900.84
2019-04-29T11:41:43.499Z,100898.04
2019-04-29T11:42:47.964Z,100894.20
2019-04-29T11:43:52.909Z,100891.36
2019-04-29T11:45:01.894Z,100894.30
2019-04-29T11:46:03.640Z,100881.51
2019-04-29T11:47:08.411Z,100884.41
2019-04-29T11:48:13.035Z,100890.45
2019-04-29T11:49:19.460Z,100886.78
2019-04-29T11:50:45.165Z,100885.59
2019-04-29T11:52:08.462Z,100895.14
2019-04-29T11:52:55.645Z,100889.05
2019-04-29T11:54:00.191Z,100866.60
2019-04-29T11:55:08.085Z,100891.44
2019-04-29T11:56:12.596Z,100882.45
2019-04-29T11:57:18.763Z,100883.91
2019-04-29T11:58:27.548Z,100881.45
2019-04-29T11:59:33.648Z,100884.34
2019-04-29T12:00:39.827Z,100887.60
2019-04-29T12:01:51.008Z,100873.35
2019-04-29T12:02:53.897Z,100876.98
2019-04-29T12:04:08.851Z,100878.31
2019-04-29T12:05:17.889Z,100877.97
2019-04-29T12:06:23.217Z,100875.34
2019-04-29T12:07:32.517Z,100873.89
2019-04-29T12:08:34.627Z,100875.45
2019-04-29T12:09:39.540Z,100869.17
2019-04-29T12:10:52.068Z,100877.49
2019-04-29T12:11:50.824Z,100877.22
2019-04-29T12:12:55.512Z,100874.77
2019-04-29T12:14:07.373Z,100867.04
2019-04-29T12:15:15.116Z,100874.63
2019-04-29T12:16:27.365Z,100871.48
2019-04-29T12:17:33.567Z,100875.88
2019-04-29T12:18:39.921Z,100870.48
2019-04-29T12:19:49.277Z,100870.20
2019-04-29T12:21:01.145Z,100874.13
2019-04-29T12:22:09.112Z,100873.99
2019-04-29T12:23:15.697Z,100867.98
2019-04-29T12:24:18.538Z,100872.31
2019-04-29T12:25:27.331Z,100860.97
2019-04-29T12:26:30.188Z,100866.59
2019-04-29T12:27:34.937Z,100867.55
2019-04-29T12:28:42.725Z,100861.44
2019-04-29T12:29:48.835Z,100860.75
2019-04-29T12:30:55.368Z,100863.27
2019-04-29T12:32:07.253Z,100861.17
2019-04-29T12:33:19.078Z,100862.31
2019-04-29T12:34:28.154Z,100864.96
2019-04-29T12:35:50.746Z,100856.11
2019-04-29T12:36:54.866Z,100861.58
2019-04-29T12:38:00.773Z,100862.53
2019-04-29T12:39:11.983Z,100854.66
2019-04-29T12:40:24.281Z,100864.14
2019-04-29T12:41:49.420Z,100853.48
2019-04-29T12:42:58.590Z,100854.13
2019-04-29T12:44:07.476Z,100849.38
2019-04-29T12:45:19.531Z,100848.50
2019-04-29T12:46:24.062Z,100845.62
2019-04-29T12:47:36.212Z,100841.08
2019-04-29T12:48:40.677Z,100844.54